sensor_id;sensor_type;location;lat;lon;timestamp;P1;durP1;ratioP1;P2;durP2;ratioP2
79243;SDS011;68672;42.676;23.356;2023-07-22T00:01:37;4.95;;;4.13;;
79243;SDS011;68672;42.676;23.356;2023-07-22T00:04:06;6.35;;;4.28;;
79243;SDS011;68672;42.676;23.356;2023-07-22T00:06:31;5.70;;;3.90;;
79243;SDS011;68672;42.676;23.356;2023-07-22T00:08:57;7.53;;;4.25;;
79243;SDS011;68672;42.676;23.356;2023-07-22T00:11:25;7.90;;;4.30;;
79243;SDS011;68672;42.676;23.356;2023-07-22T00:13:51;8.43;;;4.63;;
79243;SDS011;68672;42.676;23.356;2023-07-22T00:16:17;7.70;;;5.07;;
79243;SDS011;68672;42.676;23.356;2023-07-22T00:18:42;7.07;;;4.15;;
79243;SDS011;68672;42.676;23.356;2023-07-22T00:21:08;6.20;;;4.40;;
79243;SDS011;68672;42.676;23.356;2023-07-22T00:23:34;5.43;;;4.07;;
79243;SDS011;68672;42.676;23.356;2023-07-22T00:25:59;7.97;;;4.53;;
79243;SDS011;68672;42.676;23.356;2023-07-22T00:28:25;8.98;;;4.25;;
79243;SDS011;68672;42.676;23.356;2023-07-22T00:30:53;6.57;;;4.43;;
79243;SDS011;68672;42.676;23.356;2023-07-22T00:33:19;6.43;;;4.60;;
79243;SDS011;68672;42.676;23.356;2023-07-22T00:35:48;5.82;;;3.85;;
79243;SDS011;68672;42.676;23.356;2023-07-22T00:38:21;5.38;;;4.15;;
79243;SDS011;68672;42.676;23.356;2023-07-22T00:40:47;9.50;;;5.03;;
79243;SDS011;68672;42.676;23.356;2023-07-22T00:43:12;7.10;;;4.20;;
79243;SDS011;68672;42.676;23.356;2023-07-22T00:45:38;5.35;;;4.22;;
79243;SDS011;68672;42.676;23.356;2023-07-22T00:48:03;6.50;;;4.72;;
79243;SDS011;68672;42.676;23.356;2023-07-22T00:50:31;5.15;;;4.25;;
79243;SDS011;68672;42.676;23.356;2023-07-22T00:52:57;9.40;;;4.38;;
79243;SDS011;68672;42.676;23.356;2023-07-22T00:55:23;6.47;;;4.20;;
79243;SDS011;68672;42.676;23.356;2023-07-22T00:57:49;6.75;;;4.05;;
79243;SDS011;68672;42.676;23.356;2023-07-22T01:00:14;6.57;;;4.43;;
79243;SDS011;68672;42.676;23.356;2023-07-22T01:02:42;7.35;;;4.15;;
79243;SDS011;68672;42.676;23.356;2023-07-22T01:05:09;6.57;;;4.00;;
79243;SDS011;68672;42.676;23.356;2023-07-22T01:07:36;7.85;;;4.97;;
79243;SDS011;68672;42.676;23.356;2023-07-22T01:10:03;6.95;;;4.30;;
79243;SDS011;68672;42.676;23.356;2023-07-22T01:12:30;8.75;;;4.38;;
79243;SDS011;68672;42.676;23.356;2023-07-22T01:14:56;9.02;;;4.20;;
79243;SDS011;68672;42.676;23.356;2023-07-22T01:17:22;5.78;;;4.60;;
79243;SDS011;68672;42.676;23.356;2023-07-22T01:19:47;9.80;;;4.97;;
79243;SDS011;68672;42.676;23.356;2023-07-22T01:22:13;8.20;;;4.88;;
79243;SDS011;68672;42.676;23.356;2023-07-22T01:24:40;8.35;;;4.82;;
79243;SDS011;68672;42.676;23.356;2023-07-22T01:27:09;9.10;;;4.70;;
79243;SDS011;68672;42.676;23.356;2023-07-22T01:29:38;6.97;;;3.90;;
79243;SDS011;68672;42.676;23.356;2023-07-22T01:32:03;7.75;;;4.45;;
79243;SDS011;68672;42.676;23.356;2023-07-22T01:34:30;7.47;;;4.40;;
79243;SDS011;68672;42.676;23.356;2023-07-22T01:36:56;7.90;;;4.68;;
79243;SDS011;68672;42.676;23.356;2023-07-22T01:39:22;9.15;;;5.30;;
79243;SDS011;68672;42.676;23.356;2023-07-22T01:41:47;8.07;;;4.93;;
79243;SDS011;68672;42.676;23.356;2023-07-22T01:44:13;7.30;;;4.95;;
79243;SDS011;68672;42.676;23.356;2023-07-22T01:46:39;6.93;;;5.07;;
79243;SDS011;68672;42.676;23.356;2023-07-22T01:49:05;8.73;;;5.10;;
79243;SDS011;68672;42.676;23.356;2023-07-22T01:51:34;6.20;;;4.63;;
79243;SDS011;68672;42.676;23.356;2023-07-22T01:54:02;8.75;;;4.60;;
79243;SDS011;68672;42.676;23.356;2023-07-22T01:56:35;6.88;;;5.30;;
79243;SDS011;68672;42.676;23.356;2023-07-22T01:59:13;8.55;;;4.72;;
79243;SDS011;68672;42.676;23.356;2023-07-22T02:01:38;8.60;;;4.82;;
79243;SDS011;68672;42.676;23.356;2023-07-22T02:04:03;6.38;;;4.80;;
79243;SDS011;68672;42.676;23.356;2023-07-22T02:06:29;7.18;;;5.30;;
79243;SDS011;68672;42.676;23.356;2023-07-22T02:08:57;8.70;;;4.85;;
79243;SDS011;68672;42.676;23.356;2023-07-22T02:11:22;5.47;;;3.92;;
79243;SDS011;68672;42.676;23.356;2023-07-22T02:13:48;7.22;;;4.70;;
79243;SDS011;68672;42.676;23.356;2023-07-22T02:16:13;8.85;;;5.20;;
79243;SDS011;68672;42.676;23.356;2023-07-22T02:18:39;6.47;;;4.68;;
79243;SDS011;68672;42.676;23.356;2023-07-22T02:21:07;8.65;;;4.90;;
79243;SDS011;68672;42.676;23.356;2023-07-22T02:23:32;8.20;;;4.72;;
79243;SDS011;68672;42.676;23.356;2023-07-22T02:25:58;8.07;;;4.55;;
79243;SDS011;68672;42.676;23.356;2023-07-22T02:28:24;7.20;;;5.30;;
79243;SDS011;68672;42.676;23.356;2023-07-22T02:30:50;8.98;;;5.43;;
79243;SDS011;68672;42.676;23.356;2023-07-22T02:33:17;8.55;;;5.10;;
79243;SDS011;68672;42.676;23.356;2023-07-22T02:35:44;7.72;;;4.88;;
79243;SDS011;68672;42.676;23.356;2023-07-22T02:38:10;7.75;;;4.65;;
79243;SDS011;68672;42.676;23.356;2023-07-22T02:40:35;7.15;;;4.75;;
79243;SDS011;68672;42.676;23.356;2023-07-22T02:43:01;7.63;;;4.53;;
79243;SDS011;68672;42.676;23.356;2023-07-22T02:45:28;6.13;;;4.18;;
79243;SDS011;68672;42.676;23.356;2023-07-22T02:47:54;8.63;;;6.05;;
79243;SDS011;68672;42.676;23.356;2023-07-22T02:50:19;7.03;;;4.25;;
79243;SDS011;68672;42.676;23.356;2023-07-22T02:52:45;8.85;;;4.55;;
79243;SDS011;68672;42.676;23.356;2023-07-22T02:55:14;6.20;;;4.28;;
79243;SDS011;68672;42.676;23.356;2023-07-22T02:57:43;6.80;;;5.07;;
79243;SDS011;68672;42.676;23.356;2023-07-22T03:00:11;7.88;;;4.10;;
79243;SDS011;68672;42.676;23.356;2023-07-22T03:02:40;7.28;;;4.82;;
79243;SDS011;68672;42.676;23.356;2023-07-22T03:05:09;8.15;;;4.70;;
79243;SDS011;68672;42.676;23.356;2023-07-22T03:07:37;8.63;;;4.97;;
79243;SDS011;68672;42.676;23.356;2023-07-22T03:10:06;8.35;;;5.43;;
79243;SDS011;68672;42.676;23.356;2023-07-22T03:12:33;7.13;;;4.85;;
79243;SDS011;68672;42.676;23.356;2023-07-22T03:17:28;6.68;;;5.13;;
79243;SDS011;68672;42.676;23.356;2023-07-22T03:19:54;6.00;;;4.45;;
79243;SDS011;68672;42.676;23.356;2023-07-22T03:22:23;8.93;;;5.35;;
79243;SDS011;68672;42.676;23.356;2023-07-22T03:24:49;8.35;;;5.03;;
79243;SDS011;68672;42.676;23.356;2023-07-22T03:27:14;8.13;;;4.95;;
79243;SDS011;68672;42.676;23.356;2023-07-22T03:29:42;7.38;;;5.32;;
79243;SDS011;68672;42.676;23.356;2023-07-22T03:32:07;6.97;;;5.20;;
79243;SDS011;68672;42.676;23.356;2023-07-22T03:34:34;6.03;;;5.32;;
79243;SDS011;68672;42.676;23.356;2023-07-22T03:36:59;7.43;;;4.75;;
79243;SDS011;68672;42.676;23.356;2023-07-22T03:39:25;6.82;;;4.85;;
79243;SDS011;68672;42.676;23.356;2023-07-22T03:41:50;6.00;;;4.40;;
79243;SDS011;68672;42.676;23.356;2023-07-22T03:44:16;10.38;;;4.95;;
79243;SDS011;68672;42.676;23.356;2023-07-22T03:46:44;9.85;;;5.57;;
79243;SDS011;68672;42.676;23.356;2023-07-22T03:49:10;8.13;;;5.45;;
79243;SDS011;68672;42.676;23.356;2023-07-22T03:51:35;6.60;;;5.10;;
79243;SDS011;68672;42.676;23.356;2023-07-22T03:54:03;8.18;;;5.55;;
79243;SDS011;68672;42.676;23.356;2023-07-22T03:56:29;11.13;;;5.28;;
79243;SDS011;68672;42.676;23.356;2023-07-22T03:58:54;8.30;;;4.38;;
79243;SDS011;68672;42.676;23.356;2023-07-22T04:01:20;7.38;;;5.20;;
79243;SDS011;68672;42.676;23.356;2023-07-22T04:03:45;9.25;;;6.40;;
79243;SDS011;68672;42.676;23.356;2023-07-22T04:06:13;14.15;;;8.73;;
79243;SDS011;68672;42.676;23.356;2023-07-22T04:08:39;21.20;;;12.63;;
79243;SDS011;68672;42.676;23.356;2023-07-22T04:11:04;18.92;;;11.45;;
79243;SDS011;68672;42.676;23.356;2023-07-22T04:13:30;20.05;;;13.18;;
79243;SDS011;68672;42.676;23.356;2023-07-22T04:15:55;20.77;;;12.95;;
79243;SDS011;68672;42.676;23.356;2023-07-22T04:18:23;20.13;;;12.43;;
79243;SDS011;68672;42.676;23.356;2023-07-22T04:20:58;18.45;;;11.75;;
79243;SDS011;68672;42.676;23.356;2023-07-22T04:23:23;15.45;;;10.20;;
79243;SDS011;68672;42.676;23.356;2023-07-22T04:25:48;14.95;;;7.85;;
79243;SDS011;68672;42.676;23.356;2023-07-22T04:28:17;10.77;;;7.28;;
79243;SDS011;68672;42.676;23.356;2023-07-22T04:30:42;11.85;;;7.07;;
79243;SDS011;68672;42.676;23.356;2023-07-22T04:33:19;9.75;;;5.50;;
79243;SDS011;68672;42.676;23.356;2023-07-22T04:35:45;8.77;;;6.03;;
79243;SDS011;68672;42.676;23.356;2023-07-22T04:38:10;6.72;;;5.18;;
79243;SDS011;68672;42.676;23.356;2023-07-22T04:40:36;9.82;;;6.15;;
79243;SDS011;68672;42.676;23.356;2023-07-22T04:43:01;6.30;;;5.03;;
79243;SDS011;68672;42.676;23.356;2023-07-22T04:45:28;10.50;;;5.55;;
79243;SDS011;68672;42.676;23.356;2023-07-22T04:47:53;9.52;;;6.22;;
79243;SDS011;68672;42.676;23.356;2023-07-22T04:50:19;9.18;;;5.47;;
79243;SDS011;68672;42.676;23.356;2023-07-22T04:52:45;9.45;;;5.80;;
79243;SDS011;68672;42.676;23.356;2023-07-22T04:55:12;8.02;;;5.65;;
79243;SDS011;68672;42.676;23.356;2023-07-22T04:57:37;7.60;;;5.35;;
79243;SDS011;68672;42.676;23.356;2023-07-22T05:00:06;9.32;;;5.72;;
79243;SDS011;68672;42.676;23.356;2023-07-22T05:02:37;11.40;;;6.85;;
79243;SDS011;68672;42.676;23.356;2023-07-22T05:05:06;9.73;;;6.32;;
79243;SDS011;68672;42.676;23.356;2023-07-22T05:07:32;8.65;;;6.20;;
79243;SDS011;68672;42.676;23.356;2023-07-22T05:09:57;9.95;;;6.25;;
79243;SDS011;68672;42.676;23.356;2023-07-22T05:12:23;10.68;;;6.40;;
79243;SDS011;68672;42.676;23.356;2023-07-22T05:14:48;8.15;;;6.10;;
79243;SDS011;68672;42.676;23.356;2023-07-22T05:17:16;8.52;;;6.18;;
79243;SDS011;68672;42.676;23.356;2023-07-22T05:19:42;12.15;;;6.50;;
79243;SDS011;68672;42.676;23.356;2023-07-22T05:22:08;8.15;;;5.68;;
79243;SDS011;68672;42.676;23.356;2023-07-22T05:24:33;7.95;;;6.00;;
79243;SDS011;68672;42.676;23.356;2023-07-22T05:26:58;8.60;;;6.50;;
79243;SDS011;68672;42.676;23.356;2023-07-22T05:29:26;10.02;;;6.63;;
79243;SDS011;68672;42.676;23.356;2023-07-22T05:31:51;10.27;;;6.18;;
79243;SDS011;68672;42.676;23.356;2023-07-22T05:34:17;9.65;;;6.38;;
79243;SDS011;68672;42.676;23.356;2023-07-22T05:36:42;8.30;;;5.97;;
79243;SDS011;68672;42.676;23.356;2023-07-22T05:39:10;8.73;;;5.93;;
79243;SDS011;68672;42.676;23.356;2023-07-22T05:41:36;7.60;;;5.80;;
79243;SDS011;68672;42.676;23.356;2023-07-22T05:44:01;8.55;;;6.32;;
79243;SDS011;68672;42.676;23.356;2023-07-22T05:46:29;12.00;;;7.00;;
79243;SDS011;68672;42.676;23.356;2023-07-22T05:48:57;9.18;;;5.85;;
79243;SDS011;68672;42.676;23.356;2023-07-22T05:51:23;10.52;;;7.00;;
79243;SDS011;68672;42.676;23.356;2023-07-22T05:53:48;8.60;;;6.70;;
79243;SDS011;68672;42.676;23.356;2023-07-22T05:56:13;10.70;;;6.95;;
79243;SDS011;68672;42.676;23.356;2023-07-22T05:58:41;12.60;;;7.07;;
79243;SDS011;68672;42.676;23.356;2023-07-22T06:01:10;13.63;;;6.90;;
79243;SDS011;68672;42.676;23.356;2023-07-22T06:03:36;9.60;;;6.82;;
79243;SDS011;68672;42.676;23.356;2023-07-22T06:06:05;9.55;;;6.40;;
79243;SDS011;68672;42.676;23.356;2023-07-22T06:08:34;9.10;;;6.22;;
79243;SDS011;68672;42.676;23.356;2023-07-22T06:10:59;9.30;;;6.18;;
79243;SDS011;68672;42.676;23.356;2023-07-22T06:13:24;6.93;;;6.05;;
79243;SDS011;68672;42.676;23.356;2023-07-22T06:15:53;9.23;;;6.10;;
79243;SDS011;68672;42.676;23.356;2023-07-22T06:18:18;10.70;;;6.10;;
79243;SDS011;68672;42.676;23.356;2023-07-22T06:20:44;7.53;;;5.85;;
79243;SDS011;68672;42.676;23.356;2023-07-22T06:23:10;8.82;;;5.60;;
79243;SDS011;68672;42.676;23.356;2023-07-22T06:25:35;7.85;;;5.88;;
79243;SDS011;68672;42.676;23.356;2023-07-22T06:28:01;7.32;;;6.07;;
79243;SDS011;68672;42.676;23.356;2023-07-22T06:30:26;7.20;;;5.88;;
79243;SDS011;68672;42.676;23.356;2023-07-22T06:32:52;8.73;;;5.82;;
79243;SDS011;68672;42.676;23.356;2023-07-22T06:35:17;7.13;;;6.22;;
79243;SDS011;68672;42.676;23.356;2023-07-22T06:37:43;7.32;;;5.32;;
79243;SDS011;68672;42.676;23.356;2023-07-22T06:40:09;7.53;;;5.50;;
79243;SDS011;68672;42.676;23.356;2023-07-22T06:45:09;7.53;;;5.38;;
79243;SDS011;68672;42.676;23.356;2023-07-22T06:47:35;7.38;;;5.55;;
79243;SDS011;68672;42.676;23.356;2023-07-22T06:50:01;10.38;;;6.15;;
79243;SDS011;68672;42.676;23.356;2023-07-22T06:52:27;7.25;;;6.03;;
79243;SDS011;68672;42.676;23.356;2023-07-22T06:54:53;10.00;;;6.30;;
79243;SDS011;68672;42.676;23.356;2023-07-22T06:57:18;9.52;;;6.25;;
79243;SDS011;68672;42.676;23.356;2023-07-22T06:59:46;8.70;;;5.72;;
79243;SDS011;68672;42.676;23.356;2023-07-22T07:02:12;8.40;;;6.32;;
79243;SDS011;68672;42.676;23.356;2023-07-22T07:04:37;9.88;;;5.82;;
79243;SDS011;68672;42.676;23.356;2023-07-22T07:07:04;8.75;;;5.82;;
79243;SDS011;68672;42.676;23.356;2023-07-22T07:09:29;8.73;;;5.93;;
79243;SDS011;68672;42.676;23.356;2023-07-22T07:11:55;7.95;;;5.38;;
79243;SDS011;68672;42.676;23.356;2023-07-22T07:14:22;7.28;;;5.80;;
79243;SDS011;68672;42.676;23.356;2023-07-22T07:16:48;9.13;;;6.30;;
79243;SDS011;68672;42.676;23.356;2023-07-22T07:19:16;12.82;;;6.25;;
79243;SDS011;68672;42.676;23.356;2023-07-22T07:21:42;8.27;;;5.47;;
79243;SDS011;68672;42.676;23.356;2023-07-22T07:24:07;9.55;;;6.38;;
79243;SDS011;68672;42.676;23.356;2023-07-22T07:26:33;8.55;;;6.18;;
79243;SDS011;68672;42.676;23.356;2023-07-22T07:28:58;7.18;;;5.43;;
79243;SDS011;68672;42.676;23.356;2023-07-22T07:31:24;9.70;;;5.85;;
79243;SDS011;68672;42.676;23.356;2023-07-22T07:33:52;13.23;;;6.80;;
79243;SDS011;68672;42.676;23.356;2023-07-22T07:36:20;10.57;;;5.88;;
79243;SDS011;68672;42.676;23.356;2023-07-22T07:38:48;9.02;;;5.93;;
79243;SDS011;68672;42.676;23.356;2023-07-22T07:41:14;9.77;;;6.65;;
79243;SDS011;68672;42.676;23.356;2023-07-22T07:43:40;10.70;;;6.38;;
79243;SDS011;68672;42.676;23.356;2023-07-22T07:48:53;8.27;;;5.68;;
79243;SDS011;68672;42.676;23.356;2023-07-22T07:51:21;9.95;;;6.32;;
79243;SDS011;68672;42.676;23.356;2023-07-22T07:53:47;7.90;;;6.40;;
79243;SDS011;68672;42.676;23.356;2023-07-22T07:56:17;8.25;;;6.38;;
79243;SDS011;68672;42.676;23.356;2023-07-22T07:58:43;10.88;;;6.53;;
79243;SDS011;68672;42.676;23.356;2023-07-22T08:01:10;9.75;;;5.85;;
79243;SDS011;68672;42.676;23.356;2023-07-22T08:03:39;9.68;;;6.50;;
79243;SDS011;68672;42.676;23.356;2023-07-22T08:06:06;10.50;;;6.65;;
79243;SDS011;68672;42.676;23.356;2023-07-22T08:08:32;9.50;;;5.97;;
79243;SDS011;68672;42.676;23.356;2023-07-22T08:11:01;8.77;;;7.05;;
79243;SDS011;68672;42.676;23.356;2023-07-22T08:13:28;10.52;;;6.68;;
79243;SDS011;68672;42.676;23.356;2023-07-22T08:15:55;10.40;;;7.22;;
79243;SDS011;68672;42.676;23.356;2023-07-22T08:18:21;11.85;;;6.57;;
79243;SDS011;68672;42.676;23.356;2023-07-22T08:20:47;11.38;;;6.63;;
79243;SDS011;68672;42.676;23.356;2023-07-22T08:23:13;8.55;;;6.43;;
79243;SDS011;68672;42.676;23.356;2023-07-22T08:25:38;9.45;;;6.40;;
79243;SDS011;68672;42.676;23.356;2023-07-22T08:28:06;9.50;;;6.25;;
79243;SDS011;68672;42.676;23.356;2023-07-22T08:30:35;8.25;;;6.38;;
79243;SDS011;68672;42.676;23.356;2023-07-22T08:33:01;8.63;;;7.13;;
79243;SDS011;68672;42.676;23.356;2023-07-22T08:35:26;13.13;;;7.57;;
79243;SDS011;68672;42.676;23.356;2023-07-22T08:37:52;11.00;;;7.03;;
79243;SDS011;68672;42.676;23.356;2023-07-22T08:40:18;11.40;;;6.82;;
79243;SDS011;68672;42.676;23.356;2023-07-22T08:42:44;9.68;;;6.60;;
79243;SDS011;68672;42.676;23.356;2023-07-22T08:45:11;12.32;;;6.75;;
79243;SDS011;68672;42.676;23.356;2023-07-22T08:47:46;8.57;;;6.32;;
79243;SDS011;68672;42.676;23.356;2023-07-22T08:50:20;8.55;;;5.95;;
79243;SDS011;68672;42.676;23.356;2023-07-22T08:52:47;9.50;;;6.72;;
79243;SDS011;68672;42.676;23.356;2023-07-22T08:55:13;10.57;;;6.93;;
79243;SDS011;68672;42.676;23.356;2023-07-22T08:57:39;9.65;;;6.32;;
79243;SDS011;68672;42.676;23.356;2023-07-22T09:00:09;9.13;;;6.97;;
79243;SDS011;68672;42.676;23.356;2023-07-22T09:02:35;9.50;;;7.00;;
79243;SDS011;68672;42.676;23.356;2023-07-22T09:05:02;13.07;;;6.55;;
79243;SDS011;68672;42.676;23.356;2023-07-22T09:07:27;7.78;;;6.15;;
79243;SDS011;68672;42.676;23.356;2023-07-22T09:09:53;10.98;;;7.32;;
79243;SDS011;68672;42.676;23.356;2023-07-22T09:12:20;8.18;;;6.22;;
79243;SDS011;68672;42.676;23.356;2023-07-22T09:14:46;7.55;;;6.75;;
79243;SDS011;68672;42.676;23.356;2023-07-22T09:17:13;13.30;;;6.63;;
79243;SDS011;68672;42.676;23.356;2023-07-22T09:19:44;10.68;;;6.90;;
79243;SDS011;68672;42.676;23.356;2023-07-22T09:22:09;9.90;;;7.43;;
79243;SDS011;68672;42.676;23.356;2023-07-22T09:24:35;9.13;;;6.53;;
79243;SDS011;68672;42.676;23.356;2023-07-22T09:27:00;12.57;;;7.03;;
79243;SDS011;68672;42.676;23.356;2023-07-22T09:29:32;11.27;;;7.47;;
79243;SDS011;68672;42.676;23.356;2023-07-22T09:31:59;9.23;;;7.18;;
79243;SDS011;68672;42.676;23.356;2023-07-22T09:34:24;11.40;;;7.05;;
79243;SDS011;68672;42.676;23.356;2023-07-22T09:36:54;11.65;;;7.18;;
79243;SDS011;68672;42.676;23.356;2023-07-22T09:39:21;10.70;;;7.07;;
79243;SDS011;68672;42.676;23.356;2023-07-22T09:41:49;9.82;;;6.65;;
79243;SDS011;68672;42.676;23.356;2023-07-22T09:44:15;10.50;;;7.32;;
79243;SDS011;68672;42.676;23.356;2023-07-22T09:46:41;8.63;;;6.15;;
79243;SDS011;68672;42.676;23.356;2023-07-22T09:49:12;11.10;;;7.07;;
79243;SDS011;68672;42.676;23.356;2023-07-22T09:51:39;8.98;;;6.97;;
79243;SDS011;68672;42.676;23.356;2023-07-22T09:54:05;9.75;;;5.85;;
79243;SDS011;68672;42.676;23.356;2023-07-22T09:56:32;9.70;;;6.40;;
79243;SDS011;68672;42.676;23.356;2023-07-22T09:59:10;9.95;;;6.05;;
79243;SDS011;68672;42.676;23.356;2023-07-22T10:01:37;12.02;;;7.40;;
79243;SDS011;68672;42.676;23.356;2023-07-22T10:06:51;12.63;;;6.53;;
79243;SDS011;68672;42.676;23.356;2023-07-22T10:09:20;9.93;;;7.10;;
79243;SDS011;68672;42.676;23.356;2023-07-22T10:11:48;13.40;;;6.20;;
79243;SDS011;68672;42.676;23.356;2023-07-22T10:14:13;10.38;;;6.65;;
79243;SDS011;68672;42.676;23.356;2023-07-22T10:16:40;10.80;;;7.13;;
79243;SDS011;68672;42.676;23.356;2023-07-22T10:19:06;7.20;;;6.40;;
79243;SDS011;68672;42.676;23.356;2023-07-22T10:21:36;8.38;;;6.28;;
79243;SDS011;68672;42.676;23.356;2023-07-22T10:24:03;11.35;;;7.10;;
79243;SDS011;68672;42.676;23.356;2023-07-22T10:26:28;10.27;;;7.35;;
79243;SDS011;68672;42.676;23.356;2023-07-22T10:28:54;10.90;;;7.20;;
79243;SDS011;68672;42.676;23.356;2023-07-22T10:31:21;11.98;;;6.13;;
79243;SDS011;68672;42.676;23.356;2023-07-22T10:33:47;13.95;;;6.78;;
79243;SDS011;68672;42.676;23.356;2023-07-22T10:36:14;12.27;;;6.32;;
79243;SDS011;68672;42.676;23.356;2023-07-22T10:38:41;7.53;;;6.28;;
79243;SDS011;68672;42.676;23.356;2023-07-22T10:41:19;12.48;;;6.90;;
79243;SDS011;68672;42.676;23.356;2023-07-22T10:43:53;7.90;;;5.68;;
79243;SDS011;68672;42.676;23.356;2023-07-22T10:46:33;11.55;;;6.00;;
79243;SDS011;68672;42.676;23.356;2023-07-22T10:49:17;9.30;;;5.72;;
79243;SDS011;68672;42.676;23.356;2023-07-22T10:51:52;11.07;;;5.57;;
79243;SDS011;68672;42.676;23.356;2023-07-22T10:54:33;9.45;;;4.50;;
79243;SDS011;68672;42.676;23.356;2023-07-22T10:57:21;9.30;;;4.22;;
79243;SDS011;68672;42.676;23.356;2023-07-22T10:59:52;8.30;;;4.20;;
79243;SDS011;68672;42.676;23.356;2023-07-22T11:02:26;10.15;;;4.45;;
79243;SDS011;68672;42.676;23.356;2023-07-22T11:04:57;6.50;;;3.72;;
79243;SDS011;68672;42.676;23.356;2023-07-22T11:07:31;10.80;;;4.20;;
79243;SDS011;68672;42.676;23.356;2023-07-22T11:09:57;9.98;;;4.35;;
79243;SDS011;68672;42.676;23.356;2023-07-22T11:12:22;12.25;;;4.63;;
79243;SDS011;68672;42.676;23.356;2023-07-22T11:17:27;12.27;;;4.80;;
79243;SDS011;68672;42.676;23.356;2023-07-22T11:20:00;8.98;;;3.88;;
79243;SDS011;68672;42.676;23.356;2023-07-22T11:22:26;11.40;;;4.45;;
79243;SDS011;68672;42.676;23.356;2023-07-22T11:24:54;8.45;;;4.32;;
79243;SDS011;68672;42.676;23.356;2023-07-22T11:27:21;12.23;;;4.07;;
79243;SDS011;68672;42.676;23.356;2023-07-22T11:29:49;10.18;;;4.40;;
79243;SDS011;68672;42.676;23.356;2023-07-22T11:32:15;10.05;;;4.43;;
79243;SDS011;68672;42.676;23.356;2023-07-22T11:34:46;9.32;;;4.10;;
79243;SDS011;68672;42.676;23.356;2023-07-22T11:37:11;12.40;;;4.72;;
79243;SDS011;68672;42.676;23.356;2023-07-22T11:39:38;9.05;;;4.35;;
79243;SDS011;68672;42.676;23.356;2023-07-22T11:42:06;11.52;;;4.18;;
79243;SDS011;68672;42.676;23.356;2023-07-22T11:44:36;9.43;;;3.80;;
79243;SDS011;68672;42.676;23.356;2023-07-22T11:47:05;12.80;;;4.05;;
79243;SDS011;68672;42.676;23.356;2023-07-22T11:49:39;8.38;;;4.75;;
79243;SDS011;68672;42.676;23.356;2023-07-22T11:52:09;6.20;;;3.53;;
79243;SDS011;68672;42.676;23.356;2023-07-22T11:54:40;7.13;;;3.22;;
79243;SDS011;68672;42.676;23.356;2023-07-22T11:57:16;8.23;;;3.58;;
79243;SDS011;68672;42.676;23.356;2023-07-22T11:59:44;11.48;;;3.88;;
79243;SDS011;68672;42.676;23.356;2023-07-22T12:02:14;10.50;;;3.35;;
79243;SDS011;68672;42.676;23.356;2023-07-22T12:04:41;14.98;;;4.40;;
79243;SDS011;68672;42.676;23.356;2023-07-22T12:07:20;9.50;;;4.13;;
79243;SDS011;68672;42.676;23.356;2023-07-22T12:09:57;6.10;;;3.45;;
79243;SDS011;68672;42.676;23.356;2023-07-22T12:12:36;6.95;;;3.42;;
79243;SDS011;68672;42.676;23.356;2023-07-22T12:15:09;8.20;;;4.03;;
79243;SDS011;68672;42.676;23.356;2023-07-22T12:20:30;11.23;;;4.03;;
79243;SDS011;68672;42.676;23.356;2023-07-22T12:22:58;9.75;;;3.80;;
79243;SDS011;68672;42.676;23.356;2023-07-22T12:25:24;7.65;;;4.15;;
79243;SDS011;68672;42.676;23.356;2023-07-22T12:27:49;9.77;;;4.45;;
79243;SDS011;68672;42.676;23.356;2023-07-22T12:30:15;11.95;;;4.60;;
79243;SDS011;68672;42.676;23.356;2023-07-22T12:32:41;7.72;;;4.20;;
79243;SDS011;68672;42.676;23.356;2023-07-22T12:35:07;10.35;;;3.58;;
79243;SDS011;68672;42.676;23.356;2023-07-22T12:37:33;8.00;;;3.85;;
79243;SDS011;68672;42.676;23.356;2023-07-22T12:39:59;10.50;;;3.80;;
79243;SDS011;68672;42.676;23.356;2023-07-22T12:42:24;10.95;;;4.38;;
79243;SDS011;68672;42.676;23.356;2023-07-22T12:44:50;11.48;;;4.03;;
79243;SDS011;68672;42.676;23.356;2023-07-22T12:47:16;12.93;;;4.45;;
79243;SDS011;68672;42.676;23.356;2023-07-22T12:49:41;8.48;;;4.35;;
79243;SDS011;68672;42.676;23.356;2023-07-22T12:52:07;9.98;;;4.35;;
79243;SDS011;68672;42.676;23.356;2023-07-22T12:54:37;7.20;;;4.15;;
79243;SDS011;68672;42.676;23.356;2023-07-22T12:57:06;9.90;;;4.38;;
79243;SDS011;68672;42.676;23.356;2023-07-22T12:59:31;8.95;;;3.53;;
79243;SDS011;68672;42.676;23.356;2023-07-22T13:01:57;9.43;;;3.88;;
79243;SDS011;68672;42.676;23.356;2023-07-22T13:04:25;6.90;;;3.75;;
79243;SDS011;68672;42.676;23.356;2023-07-22T13:06:50;7.97;;;4.10;;
79243;SDS011;68672;42.676;23.356;2023-07-22T13:09:19;9.45;;;3.95;;
79243;SDS011;68672;42.676;23.356;2023-07-22T13:11:45;12.63;;;3.88;;
79243;SDS011;68672;42.676;23.356;2023-07-22T13:14:11;11.75;;;5.10;;
79243;SDS011;68672;42.676;23.356;2023-07-22T13:16:40;8.50;;;3.88;;
79243;SDS011;68672;42.676;23.356;2023-07-22T13:19:05;12.90;;;4.38;;
79243;SDS011;68672;42.676;23.356;2023-07-22T13:21:30;9.52;;;4.35;;
79243;SDS011;68672;42.676;23.356;2023-07-22T13:23:56;13.48;;;4.88;;
79243;SDS011;68672;42.676;23.356;2023-07-22T13:26:24;10.13;;;4.68;;
79243;SDS011;68672;42.676;23.356;2023-07-22T13:28:50;14.73;;;5.28;;
79243;SDS011;68672;42.676;23.356;2023-07-22T13:31:15;11.25;;;4.10;;
79243;SDS011;68672;42.676;23.356;2023-07-22T13:33:40;10.40;;;4.53;;
79243;SDS011;68672;42.676;23.356;2023-07-22T13:36:06;9.55;;;4.22;;
79243;SDS011;68672;42.676;23.356;2023-07-22T13:38:32;9.35;;;4.07;;
79243;SDS011;68672;42.676;23.356;2023-07-22T13:40:57;10.98;;;4.20;;
79243;SDS011;68672;42.676;23.356;2023-07-22T13:43:22;10.68;;;4.20;;
79243;SDS011;68672;42.676;23.356;2023-07-22T13:45:48;8.43;;;4.38;;
79243;SDS011;68672;42.676;23.356;2023-07-22T13:48:13;7.93;;;4.03;;
79243;SDS011;68672;42.676;23.356;2023-07-22T13:50:39;10.80;;;4.20;;
79243;SDS011;68672;42.676;23.356;2023-07-22T13:53:05;8.90;;;3.67;;
79243;SDS011;68672;42.676;23.356;2023-07-22T13:55:31;9.45;;;4.15;;
79243;SDS011;68672;42.676;23.356;2023-07-22T13:57:56;10.18;;;3.67;;
79243;SDS011;68672;42.676;23.356;2023-07-22T14:00:22;8.55;;;4.47;;
79243;SDS011;68672;42.676;23.356;2023-07-22T14:02:47;7.95;;;3.58;;
79243;SDS011;68672;42.676;23.356;2023-07-22T14:05:13;7.78;;;3.20;;
79243;SDS011;68672;42.676;23.356;2023-07-22T14:07:38;9.40;;;4.03;;
79243;SDS011;68672;42.676;23.356;2023-07-22T14:10:05;9.07;;;4.18;;
79243;SDS011;68672;42.676;23.356;2023-07-22T14:12:31;12.68;;;4.10;;
79243;SDS011;68672;42.676;23.356;2023-07-22T14:14:56;10.50;;;4.10;;
79243;SDS011;68672;42.676;23.356;2023-07-22T14:17:21;9.38;;;4.30;;
79243;SDS011;68672;42.676;23.356;2023-07-22T14:19:47;8.93;;;3.45;;
79243;SDS011;68672;42.676;23.356;2023-07-22T14:22:12;10.00;;;4.35;;
79243;SDS011;68672;42.676;23.356;2023-07-22T14:24:38;9.25;;;3.70;;
79243;SDS011;68672;42.676;23.356;2023-07-22T14:27:03;7.70;;;3.75;;
79243;SDS011;68672;42.676;23.356;2023-07-22T14:29:32;11.95;;;3.63;;
79243;SDS011;68672;42.676;23.356;2023-07-22T14:31:57;6.25;;;3.72;;
79243;SDS011;68672;42.676;23.356;2023-07-22T14:34:23;9.18;;;3.95;;
79243;SDS011;68672;42.676;23.356;2023-07-22T14:36:48;11.27;;;4.25;;
79243;SDS011;68672;42.676;23.356;2023-07-22T14:39:14;12.15;;;4.13;;
79243;SDS011;68672;42.676;23.356;2023-07-22T14:41:40;11.05;;;4.53;;
79243;SDS011;68672;42.676;23.356;2023-07-22T14:44:08;7.97;;;4.13;;
79243;SDS011;68672;42.676;23.356;2023-07-22T14:46:33;9.65;;;3.78;;